الصفحة الرئيسية
METAR-TAF:

METAR-TAF

مطار :

مطار ميتشيل رومان الدولي

كورور, Babeldaob, بالاو

دائرة عرض: 07-22N, خط طول: 134-32E, ارتفاع: 54 متر

مراقبة الطقس الحالي

تاريخ ووقت الإصدار 8 دقيقة قبل الساعة 15:50UTC
ريح 3 عقدة من الشمال الغربي
درجة الحرارة 26°درجة مئوية
الرطوبة 94%
ضغط 1009 hPa
الرؤية: 24.1 كم
غيوم متفرقة على ارتفاع 1600 قدم, مزن ركامية عمودية.
غيوم مفككة على ارتفاع 30000 قدم

METAR: PTRO 221550Z 31003KT 15SM SCT016TCU BKN300 26/25 A2981 RMK TCU ALQDS

زمن: 00:58 (15:58 UTC)

توقعات

تاريخ ووقت الإصدار 4ساعات و 38 دقيقة قبل الساعة 11:20UTC
التوقعات صالحة من22 الساعة 12 UTC إلى 23 الساعة 12 UTC
ريح 6 عقدة من الشرق
الرؤية: 10 كم
غيوم متفرقة على ارتفاع 1600 قدم
غيوم متفرقة على ارتفاع 12000 قدم
زخات في الجوار

TAF: PTRO 221120Z 2212/2312 10006KT P6SM VCSH SCT016 SCT120

أرصاد الطقس والتوقعات من أكثر من 4000 مطار (تقارير الطقس للمطار METAR والتنبؤ بالطقس بالمطارTAF).

المحطات المتاحة هي النقط الصفراء والحمراء على الخريطة.

حرك المؤشر فوق النقطة لمعرفة اسم المحطة.

ثم انقر لمعرفة أرصاد وتوقعات الطقس.

لتغيير الخارطة: اضغط على الأزرار الخضراء مع رمز الصليب الأسود للتكبير. على الزر الأخضر مع شرطة للتصغير، أو على الأسهم الخضراء للخرائط المجاورة.


METAR-TAF: